sensor_id;sensor_type;location;lat;lon;timestamp;temperature;humidity
18073;DHT22;9161;47.348;9.648;2022-12-28T00:02:34;1.30;99.90
18073;DHT22;9161;47.348;9.648;2022-12-28T00:07:17;1.40;99.90
18073;DHT22;9161;47.348;9.648;2022-12-28T00:12:01;1.30;99.90
18073;DHT22;9161;47.348;9.648;2022-12-28T00:16:46;1.30;99.90
18073;DHT22;9161;47.348;9.648;2022-12-28T00:21:35;1.20;99.90
18073;DHT22;9161;47.348;9.648;2022-12-28T00:26:19;1.00;99.90
18073;DHT22;9161;47.348;9.648;2022-12-28T00:31:03;0.90;99.90
18073;DHT22;9161;47.348;9.648;2022-12-28T00:35:53;0.80;99.90
18073;DHT22;9161;47.348;9.648;2022-12-28T00:40:37;0.90;99.90
18073;DHT22;9161;47.348;9.648;2022-12-28T00:45:20;0.90;99.90
18073;DHT22;9161;47.348;9.648;2022-12-28T00:50:05;0.80;99.90
18073;DHT22;9161;47.348;9.648;2022-12-28T00:54:50;0.70;99.90
18073;DHT22;9161;47.348;9.648;2022-12-28T00:59:33;0.60;99.90
18073;DHT22;9161;47.348;9.648;2022-12-28T01:04:17;0.80;99.90
18073;DHT22;9161;47.348;9.648;2022-12-28T01:09:01;0.80;99.90
18073;DHT22;9161;47.348;9.648;2022-12-28T01:13:47;0.70;99.90
18073;DHT22;9161;47.348;9.648;2022-12-28T01:18:31;0.90;99.90
18073;DHT22;9161;47.348;9.648;2022-12-28T01:23:14;0.90;99.90
18073;DHT22;9161;47.348;9.648;2022-12-28T01:27:58;0.80;99.90
18073;DHT22;9161;47.348;9.648;2022-12-28T01:32:43;0.60;99.90
18073;DHT22;9161;47.348;9.648;2022-12-28T01:37:26;0.60;99.90
18073;DHT22;9161;47.348;9.648;2022-12-28T01:42:15;0.60;99.90
18073;DHT22;9161;47.348;9.648;2022-12-28T01:47:01;0.70;99.90
18073;DHT22;9161;47.348;9.648;2022-12-28T01:51:51;1.00;99.90
18073;DHT22;9161;47.348;9.648;2022-12-28T01:56:36;1.20;99.90
18073;DHT22;9161;47.348;9.648;2022-12-28T02:01:20;1.20;99.90
18073;DHT22;9161;47.348;9.648;2022-12-28T02:06:07;1.40;99.90
18073;DHT22;9161;47.348;9.648;2022-12-28T02:10:54;2.10;99.90
18073;DHT22;9161;47.348;9.648;2022-12-28T02:15:38;2.80;99.90
18073;DHT22;9161;47.348;9.648;2022-12-28T02:20:23;3.00;99.90
18073;DHT22;9161;47.348;9.648;2022-12-28T02:30:20;3.30;99.90
18073;DHT22;9161;47.348;9.648;2022-12-28T02:35:07;3.30;99.90
18073;DHT22;9161;47.348;9.648;2022-12-28T02:39:54;3.20;99.90
18073;DHT22;9161;47.348;9.648;2022-12-28T02:44:38;2.90;99.90
18073;DHT22;9161;47.348;9.648;2022-12-28T02:49:40;2.80;99.90
18073;DHT22;9161;47.348;9.648;2022-12-28T02:54:56;2.80;99.90
18073;DHT22;9161;47.348;9.648;2022-12-28T03:00:04;2.90;99.90
18073;DHT22;9161;47.348;9.648;2022-12-28T03:05:07;2.40;99.90
18073;DHT22;9161;47.348;9.648;2022-12-28T03:10:00;2.30;99.90
18073;DHT22;9161;47.348;9.648;2022-12-28T03:14:49;2.30;99.90
18073;DHT22;9161;47.348;9.648;2022-12-28T03:19:39;2.90;99.90
18073;DHT22;9161;47.348;9.648;2022-12-28T03:24:44;3.30;99.90
18073;DHT22;9161;47.348;9.648;2022-12-28T03:29:51;3.30;99.90
18073;DHT22;9161;47.348;9.648;2022-12-28T03:34:54;3.00;99.90
18073;DHT22;9161;47.348;9.648;2022-12-28T03:39:41;2.70;99.90
18073;DHT22;9161;47.348;9.648;2022-12-28T03:44:33;2.60;99.90
18073;DHT22;9161;47.348;9.648;2022-12-28T03:49:17;2.40;99.90
18073;DHT22;9161;47.348;9.648;2022-12-28T03:54:01;2.60;99.90
18073;DHT22;9161;47.348;9.648;2022-12-28T03:58:45;2.60;99.90
18073;DHT22;9161;47.348;9.648;2022-12-28T04:03:30;2.60;99.90
18073;DHT22;9161;47.348;9.648;2022-12-28T04:08:13;2.30;99.90
18073;DHT22;9161;47.348;9.648;2022-12-28T04:12:57;2.60;99.90
18073;DHT22;9161;47.348;9.648;2022-12-28T04:17:41;2.50;99.90
18073;DHT22;9161;47.348;9.648;2022-12-28T04:22:25;2.40;99.90
18073;DHT22;9161;47.348;9.648;2022-12-28T04:27:09;2.60;99.90
18073;DHT22;9161;47.348;9.648;2022-12-28T04:31:52;3.00;99.90
18073;DHT22;9161;47.348;9.648;2022-12-28T04:36:36;2.60;99.90
18073;DHT22;9161;47.348;9.648;2022-12-28T04:41:22;2.20;99.90
18073;DHT22;9161;47.348;9.648;2022-12-28T04:46:06;1.90;99.90
18073;DHT22;9161;47.348;9.648;2022-12-28T04:50:50;1.80;99.90
18073;DHT22;9161;47.348;9.648;2022-12-28T04:55:34;1.70;99.90
18073;DHT22;9161;47.348;9.648;2022-12-28T05:00:19;1.70;99.90
18073;DHT22;9161;47.348;9.648;2022-12-28T05:05:03;1.60;99.90
18073;DHT22;9161;47.348;9.648;2022-12-28T05:09:46;1.60;99.90
18073;DHT22;9161;47.348;9.648;2022-12-28T05:14:30;2.20;99.90
18073;DHT22;9161;47.348;9.648;2022-12-28T05:19:19;3.10;99.90
18073;DHT22;9161;47.348;9.648;2022-12-28T05:24:03;2.80;99.90
18073;DHT22;9161;47.348;9.648;2022-12-28T05:28:47;2.60;99.90
18073;DHT22;9161;47.348;9.648;2022-12-28T05:33:33;2.80;99.90
18073;DHT22;9161;47.348;9.648;2022-12-28T05:38:18;3.20;99.90
18073;DHT22;9161;47.348;9.648;2022-12-28T05:43:02;3.20;99.90
18073;DHT22;9161;47.348;9.648;2022-12-28T05:47:45;3.20;99.90
18073;DHT22;9161;47.348;9.648;2022-12-28T05:52:29;3.20;99.90
18073;DHT22;9161;47.348;9.648;2022-12-28T05:57:15;3.10;99.90
18073;DHT22;9161;47.348;9.648;2022-12-28T06:01:58;3.20;99.90
18073;DHT22;9161;47.348;9.648;2022-12-28T06:06:43;3.30;99.90
18073;DHT22;9161;47.348;9.648;2022-12-28T06:11:36;3.20;99.90
18073;DHT22;9161;47.348;9.648;2022-12-28T06:16:28;3.20;99.90
18073;DHT22;9161;47.348;9.648;2022-12-28T06:21:15;3.30;99.90
18073;DHT22;9161;47.348;9.648;2022-12-28T06:25:59;3.10;99.90
18073;DHT22;9161;47.348;9.648;2022-12-28T06:30:43;3.10;99.90
18073;DHT22;9161;47.348;9.648;2022-12-28T06:35:39;3.00;99.90
18073;DHT22;9161;47.348;9.648;2022-12-28T06:40:23;2.90;99.90
18073;DHT22;9161;47.348;9.648;2022-12-28T06:45:26;2.70;99.90
18073;DHT22;9161;47.348;9.648;2022-12-28T06:50:10;2.60;99.90
18073;DHT22;9161;47.348;9.648;2022-12-28T06:54:55;2.30;99.90
18073;DHT22;9161;47.348;9.648;2022-12-28T06:59:38;2.00;99.90
18073;DHT22;9161;47.348;9.648;2022-12-28T07:04:22;1.70;99.90
18073;DHT22;9161;47.348;9.648;2022-12-28T07:09:07;1.40;99.90
18073;DHT22;9161;47.348;9.648;2022-12-28T07:13:53;1.30;99.90
18073;DHT22;9161;47.348;9.648;2022-12-28T07:18:37;1.10;99.90
18073;DHT22;9161;47.348;9.648;2022-12-28T07:23:20;0.90;99.90
18073;DHT22;9161;47.348;9.648;2022-12-28T07:28:04;0.90;99.90
18073;DHT22;9161;47.348;9.648;2022-12-28T07:32:49;1.00;99.90
18073;DHT22;9161;47.348;9.648;2022-12-28T07:37:32;1.20;99.90
18073;DHT22;9161;47.348;9.648;2022-12-28T07:42:16;1.60;99.90
18073;DHT22;9161;47.348;9.648;2022-12-28T07:47:00;1.80;99.90
18073;DHT22;9161;47.348;9.648;2022-12-28T07:51:47;1.90;99.90
18073;DHT22;9161;47.348;9.648;2022-12-28T07:56:32;1.90;99.90
18073;DHT22;9161;47.348;9.648;2022-12-28T08:01:16;1.70;99.90
18073;DHT22;9161;47.348;9.648;2022-12-28T08:06:05;1.90;99.90
18073;DHT22;9161;47.348;9.648;2022-12-28T08:10:50;2.30;99.90
18073;DHT22;9161;47.348;9.648;2022-12-28T08:15:34;3.20;99.90
18073;DHT22;9161;47.348;9.648;2022-12-28T08:20:18;3.50;99.90
18073;DHT22;9161;47.348;9.648;2022-12-28T08:25:01;3.50;99.90
18073;DHT22;9161;47.348;9.648;2022-12-28T08:29:49;3.60;99.90
18073;DHT22;9161;47.348;9.648;2022-12-28T08:34:33;3.90;99.90
18073;DHT22;9161;47.348;9.648;2022-12-28T08:39:16;3.80;99.90
18073;DHT22;9161;47.348;9.648;2022-12-28T08:44:00;3.90;99.90
18073;DHT22;9161;47.348;9.648;2022-12-28T08:48:47;4.10;99.90
18073;DHT22;9161;47.348;9.648;2022-12-28T08:53:31;4.20;99.90
18073;DHT22;9161;47.348;9.648;2022-12-28T08:58:15;4.60;99.90
18073;DHT22;9161;47.348;9.648;2022-12-28T09:02:58;4.80;99.90
18073;DHT22;9161;47.348;9.648;2022-12-28T09:07:43;4.90;99.90
18073;DHT22;9161;47.348;9.648;2022-12-28T09:12:27;5.70;99.90
18073;DHT22;9161;47.348;9.648;2022-12-28T09:17:10;5.50;99.90
18073;DHT22;9161;47.348;9.648;2022-12-28T09:21:54;5.60;99.90
18073;DHT22;9161;47.348;9.648;2022-12-28T09:26:39;5.80;99.90
18073;DHT22;9161;47.348;9.648;2022-12-28T09:31:24;5.70;99.90
18073;DHT22;9161;47.348;9.648;2022-12-28T09:36:08;5.30;99.90
18073;DHT22;9161;47.348;9.648;2022-12-28T09:40:51;5.30;99.90
18073;DHT22;9161;47.348;9.648;2022-12-28T09:45:37;5.40;99.90
18073;DHT22;9161;47.348;9.648;2022-12-28T09:50:27;5.80;99.90
18073;DHT22;9161;47.348;9.648;2022-12-28T09:55:12;6.10;99.90
18073;DHT22;9161;47.348;9.648;2022-12-28T09:59:57;6.50;99.90
18073;DHT22;9161;47.348;9.648;2022-12-28T10:04:42;6.50;99.90
18073;DHT22;9161;47.348;9.648;2022-12-28T10:09:32;7.00;99.90
18073;DHT22;9161;47.348;9.648;2022-12-28T10:14:18;8.00;99.90
18073;DHT22;9161;47.348;9.648;2022-12-28T10:19:05;8.60;99.90
18073;DHT22;9161;47.348;9.648;2022-12-28T10:23:52;8.70;99.90
18073;DHT22;9161;47.348;9.648;2022-12-28T10:28:59;9.00;99.90
18073;DHT22;9161;47.348;9.648;2022-12-28T10:33:49;9.20;99.90
18073;DHT22;9161;47.348;9.648;2022-12-28T10:38:34;9.40;99.90
18073;DHT22;9161;47.348;9.648;2022-12-28T10:43:19;7.90;99.90
18073;DHT22;9161;47.348;9.648;2022-12-28T10:48:08;8.60;99.90
18073;DHT22;9161;47.348;9.648;2022-12-28T10:52:55;8.70;99.90
18073;DHT22;9161;47.348;9.648;2022-12-28T10:57:40;8.50;99.90
18073;DHT22;9161;47.348;9.648;2022-12-28T11:02:45;8.80;99.90
18073;DHT22;9161;47.348;9.648;2022-12-28T11:07:31;10.50;99.90
18073;DHT22;9161;47.348;9.648;2022-12-28T11:12:16;11.80;99.90
18073;DHT22;9161;47.348;9.648;2022-12-28T11:17:11;12.30;99.90
18073;DHT22;9161;47.348;9.648;2022-12-28T11:21:58;12.30;99.90
18073;DHT22;9161;47.348;9.648;2022-12-28T11:26:42;13.00;99.90
18073;DHT22;9161;47.348;9.648;2022-12-28T11:31:29;14.10;99.90
18073;DHT22;9161;47.348;9.648;2022-12-28T11:36:15;14.60;99.90
18073;DHT22;9161;47.348;9.648;2022-12-28T11:41:01;15.40;99.90
18073;DHT22;9161;47.348;9.648;2022-12-28T11:45:53;15.50;99.90
18073;DHT22;9161;47.348;9.648;2022-12-28T11:50:51;15.70;99.90
18073;DHT22;9161;47.348;9.648;2022-12-28T11:55:49;15.20;99.90
18073;DHT22;9161;47.348;9.648;2022-12-28T12:00:47;14.50;99.90
18073;DHT22;9161;47.348;9.648;2022-12-28T12:06:00;13.50;99.90
18073;DHT22;9161;47.348;9.648;2022-12-28T12:10:45;11.50;99.90
18073;DHT22;9161;47.348;9.648;2022-12-28T12:15:36;11.10;99.90
18073;DHT22;9161;47.348;9.648;2022-12-28T12:20:29;11.20;99.90
18073;DHT22;9161;47.348;9.648;2022-12-28T12:25:21;11.90;99.90
18073;DHT22;9161;47.348;9.648;2022-12-28T12:30:13;13.30;99.90
18073;DHT22;9161;47.348;9.648;2022-12-28T12:35:01;14.40;99.90
18073;DHT22;9161;47.348;9.648;2022-12-28T12:40:09;16.10;99.90
18073;DHT22;9161;47.348;9.648;2022-12-28T12:45:02;17.00;99.90
18073;DHT22;9161;47.348;9.648;2022-12-28T12:55:10;18.30;99.90
18073;DHT22;9161;47.348;9.648;2022-12-28T13:00:04;19.70;99.90
18073;DHT22;9161;47.348;9.648;2022-12-28T13:04:52;19.50;96.90
18073;DHT22;9161;47.348;9.648;2022-12-28T13:09:36;17.10;98.60
18073;DHT22;9161;47.348;9.648;2022-12-28T13:14:22;14.70;99.90
18073;DHT22;9161;47.348;9.648;2022-12-28T13:19:15;14.70;99.90
18073;DHT22;9161;47.348;9.648;2022-12-28T13:24:00;15.20;99.90
18073;DHT22;9161;47.348;9.648;2022-12-28T13:28:49;13.80;99.90
18073;DHT22;9161;47.348;9.648;2022-12-28T13:33:35;13.70;99.90
18073;DHT22;9161;47.348;9.648;2022-12-28T13:38:18;14.50;99.90
18073;DHT22;9161;47.348;9.648;2022-12-28T13:43:30;14.50;99.90
18073;DHT22;9161;47.348;9.648;2022-12-28T13:48:20;15.70;99.60
18073;DHT22;9161;47.348;9.648;2022-12-28T13:53:09;16.00;99.70
18073;DHT22;9161;47.348;9.648;2022-12-28T13:57:56;16.10;99.00
18073;DHT22;9161;47.348;9.648;2022-12-28T14:02:41;15.60;99.20
18073;DHT22;9161;47.348;9.648;2022-12-28T14:07:28;15.50;99.20
18073;DHT22;9161;47.348;9.648;2022-12-28T14:12:13;14.90;99.60
18073;DHT22;9161;47.348;9.648;2022-12-28T14:17:00;14.00;99.90
18073;DHT22;9161;47.348;9.648;2022-12-28T14:21:45;13.10;99.90
18073;DHT22;9161;47.348;9.648;2022-12-28T14:26:29;12.00;99.90
18073;DHT22;9161;47.348;9.648;2022-12-28T14:31:21;10.90;99.90
18073;DHT22;9161;47.348;9.648;2022-12-28T14:36:15;10.30;99.90
18073;DHT22;9161;47.348;9.648;2022-12-28T14:41:02;9.60;99.90
18073;DHT22;9161;47.348;9.648;2022-12-28T14:45:47;9.30;99.90
18073;DHT22;9161;47.348;9.648;2022-12-28T14:50:57;9.10;99.90
18073;DHT22;9161;47.348;9.648;2022-12-28T14:55:55;8.70;99.90
18073;DHT22;9161;47.348;9.648;2022-12-28T15:00:53;8.30;99.90
18073;DHT22;9161;47.348;9.648;2022-12-28T15:05:40;8.20;99.90
18073;DHT22;9161;47.348;9.648;2022-12-28T15:10:26;8.20;99.90
18073;DHT22;9161;47.348;9.648;2022-12-28T15:15:10;8.00;99.90
18073;DHT22;9161;47.348;9.648;2022-12-28T15:19:54;7.60;99.90
18073;DHT22;9161;47.348;9.648;2022-12-28T15:24:38;7.40;99.90
18073;DHT22;9161;47.348;9.648;2022-12-28T15:29:28;7.10;99.90
18073;DHT22;9161;47.348;9.648;2022-12-28T15:34:31;6.90;99.90
18073;DHT22;9161;47.348;9.648;2022-12-28T15:39:15;6.60;99.90
18073;DHT22;9161;47.348;9.648;2022-12-28T15:43:59;6.20;99.90
18073;DHT22;9161;47.348;9.648;2022-12-28T15:48:44;6.00;99.90
18073;DHT22;9161;47.348;9.648;2022-12-28T15:53:28;5.90;99.90
18073;DHT22;9161;47.348;9.648;2022-12-28T15:58:12;5.90;99.90
18073;DHT22;9161;47.348;9.648;2022-12-28T16:02:55;5.70;99.90
18073;DHT22;9161;47.348;9.648;2022-12-28T16:07:41;5.40;99.90
18073;DHT22;9161;47.348;9.648;2022-12-28T16:12:24;5.60;99.90
18073;DHT22;9161;47.348;9.648;2022-12-28T16:17:08;5.70;99.90
18073;DHT22;9161;47.348;9.648;2022-12-28T16:21:51;5.70;99.90
18073;DHT22;9161;47.348;9.648;2022-12-28T16:26:36;5.50;99.90
18073;DHT22;9161;47.348;9.648;2022-12-28T16:31:21;5.30;99.90
18073;DHT22;9161;47.348;9.648;2022-12-28T16:36:10;5.10;99.90
18073;DHT22;9161;47.348;9.648;2022-12-28T16:40:55;4.90;99.90
18073;DHT22;9161;47.348;9.648;2022-12-28T16:45:41;4.90;99.90
18073;DHT22;9161;47.348;9.648;2022-12-28T16:50:25;4.90;99.90
18073;DHT22;9161;47.348;9.648;2022-12-28T16:55:09;4.90;99.90
18073;DHT22;9161;47.348;9.648;2022-12-28T16:59:52;4.70;99.90
18073;DHT22;9161;47.348;9.648;2022-12-28T17:04:37;4.60;99.90
18073;DHT22;9161;47.348;9.648;2022-12-28T17:09:21;4.40;99.90
18073;DHT22;9161;47.348;9.648;2022-12-28T17:14:06;4.40;99.90
18073;DHT22;9161;47.348;9.648;2022-12-28T17:18:50;4.90;99.90
18073;DHT22;9161;47.348;9.648;2022-12-28T17:23:37;5.20;99.90
18073;DHT22;9161;47.348;9.648;2022-12-28T17:28:21;5.40;99.90
18073;DHT22;9161;47.348;9.648;2022-12-28T17:33:05;5.30;99.90
18073;DHT22;9161;47.348;9.648;2022-12-28T17:37:49;4.90;99.90
18073;DHT22;9161;47.348;9.648;2022-12-28T17:42:34;4.50;99.90
18073;DHT22;9161;47.348;9.648;2022-12-28T17:47:18;5.00;99.90
18073;DHT22;9161;47.348;9.648;2022-12-28T17:52:02;5.70;99.90
18073;DHT22;9161;47.348;9.648;2022-12-28T17:56:46;5.90;99.90
18073;DHT22;9161;47.348;9.648;2022-12-28T18:01:31;5.80;99.90
18073;DHT22;9161;47.348;9.648;2022-12-28T18:06:15;5.70;99.90
18073;DHT22;9161;47.348;9.648;2022-12-28T18:10:59;5.30;99.90
18073;DHT22;9161;47.348;9.648;2022-12-28T18:15:47;5.10;99.90
18073;DHT22;9161;47.348;9.648;2022-12-28T18:20:32;5.00;99.90
18073;DHT22;9161;47.348;9.648;2022-12-28T18:25:16;4.70;99.90
18073;DHT22;9161;47.348;9.648;2022-12-28T18:30:01;4.90;99.90
18073;DHT22;9161;47.348;9.648;2022-12-28T18:34:45;5.40;99.90
18073;DHT22;9161;47.348;9.648;2022-12-28T18:39:31;5.20;99.90
18073;DHT22;9161;47.348;9.648;2022-12-28T18:44:16;5.20;99.90
18073;DHT22;9161;47.348;9.648;2022-12-28T18:49:00;5.10;99.90
18073;DHT22;9161;47.348;9.648;2022-12-28T18:53:47;5.30;99.90
18073;DHT22;9161;47.348;9.648;2022-12-28T18:58:35;5.50;99.90
18073;DHT22;9161;47.348;9.648;2022-12-28T19:03:19;5.20;99.90
18073;DHT22;9161;47.348;9.648;2022-12-28T19:08:04;4.80;99.90
18073;DHT22;9161;47.348;9.648;2022-12-28T19:12:48;4.60;99.90
18073;DHT22;9161;47.348;9.648;2022-12-28T19:17:34;4.70;99.90
18073;DHT22;9161;47.348;9.648;2022-12-28T19:22:18;4.60;99.90
18073;DHT22;9161;47.348;9.648;2022-12-28T19:27:02;4.40;99.90
18073;DHT22;9161;47.348;9.648;2022-12-28T19:31:46;4.30;99.90
18073;DHT22;9161;47.348;9.648;2022-12-28T19:36:32;4.30;99.90
18073;DHT22;9161;47.348;9.648;2022-12-28T19:41:16;4.40;99.90
18073;DHT22;9161;47.348;9.648;2022-12-28T19:46:02;4.50;99.90
18073;DHT22;9161;47.348;9.648;2022-12-28T19:50:46;4.70;99.90
18073;DHT22;9161;47.348;9.648;2022-12-28T19:55:31;4.70;99.90
18073;DHT22;9161;47.348;9.648;2022-12-28T20:00:16;4.50;99.90
18073;DHT22;9161;47.348;9.648;2022-12-28T20:05:01;4.30;99.90
18073;DHT22;9161;47.348;9.648;2022-12-28T20:09:48;4.90;99.90
18073;DHT22;9161;47.348;9.648;2022-12-28T20:14:33;5.30;99.90
18073;DHT22;9161;47.348;9.648;2022-12-28T20:19:17;5.50;99.90
18073;DHT22;9161;47.348;9.648;2022-12-28T20:24:01;5.50;99.90
18073;DHT22;9161;47.348;9.648;2022-12-28T20:28:47;5.60;99.90
18073;DHT22;9161;47.348;9.648;2022-12-28T20:33:34;5.80;99.90
18073;DHT22;9161;47.348;9.648;2022-12-28T20:38:18;5.70;99.90
18073;DHT22;9161;47.348;9.648;2022-12-28T20:43:02;5.50;99.90
18073;DHT22;9161;47.348;9.648;2022-12-28T20:48:04;5.90;99.90
18073;DHT22;9161;47.348;9.648;2022-12-28T20:52:51;5.80;99.90
18073;DHT22;9161;47.348;9.648;2022-12-28T20:57:35;5.50;99.90
18073;DHT22;9161;47.348;9.648;2022-12-28T21:18:27;7.50;99.90
18073;DHT22;9161;47.348;9.648;2022-12-28T21:23:12;7.00;99.90
18073;DHT22;9161;47.348;9.648;2022-12-28T21:27:55;6.10;99.90
18073;DHT22;9161;47.348;9.648;2022-12-28T21:32:40;6.20;99.90
18073;DHT22;9161;47.348;9.648;2022-12-28T21:37:25;7.00;99.90
18073;DHT22;9161;47.348;9.648;2022-12-28T21:42:17;7.40;99.90
18073;DHT22;9161;47.348;9.648;2022-12-28T21:47:04;7.20;99.90
18073;DHT22;9161;47.348;9.648;2022-12-28T21:51:49;7.20;99.90
18073;DHT22;9161;47.348;9.648;2022-12-28T21:56:35;7.50;99.90
18073;DHT22;9161;47.348;9.648;2022-12-28T22:01:19;7.70;99.90
18073;DHT22;9161;47.348;9.648;2022-12-28T22:06:20;7.80;99.90
18073;DHT22;9161;47.348;9.648;2022-12-28T22:11:04;8.00;99.90
18073;DHT22;9161;47.348;9.648;2022-12-28T22:16:06;8.20;99.90
18073;DHT22;9161;47.348;9.648;2022-12-28T22:20:51;8.10;99.90
18073;DHT22;9161;47.348;9.648;2022-12-28T22:25:35;8.20;99.90
18073;DHT22;9161;47.348;9.648;2022-12-28T22:30:19;8.10;99.90
18073;DHT22;9161;47.348;9.648;2022-12-28T22:35:05;8.00;99.90
18073;DHT22;9161;47.348;9.648;2022-12-28T22:39:49;8.00;99.90
18073;DHT22;9161;47.348;9.648;2022-12-28T22:44:33;7.90;99.90
18073;DHT22;9161;47.348;9.648;2022-12-28T22:49:17;7.80;99.90
18073;DHT22;9161;47.348;9.648;2022-12-28T22:54:02;8.20;99.90
18073;DHT22;9161;47.348;9.648;2022-12-28T22:58:46;8.20;99.90
18073;DHT22;9161;47.348;9.648;2022-12-28T23:03:30;8.10;99.90
18073;DHT22;9161;47.348;9.648;2022-12-28T23:08:14;7.50;99.90
18073;DHT22;9161;47.348;9.648;2022-12-28T23:12:59;7.30;99.90
18073;DHT22;9161;47.348;9.648;2022-12-28T23:17:43;7.40;99.90
18073;DHT22;9161;47.348;9.648;2022-12-28T23:22:28;7.10;99.90
18073;DHT22;9161;47.348;9.648;2022-12-28T23:27:32;6.90;99.90
18073;DHT22;9161;47.348;9.648;2022-12-28T23:32:18;6.90;99.90
18073;DHT22;9161;47.348;9.648;2022-12-28T23:37:02;6.90;99.90
18073;DHT22;9161;47.348;9.648;2022-12-28T23:41:45;6.90;99.90
18073;DHT22;9161;47.348;9.648;2022-12-28T23:46:32;6.90;99.90
18073;DHT22;9161;47.348;9.648;2022-12-28T23:51:17;6.90;99.90
18073;DHT22;9161;47.348;9.648;2022-12-28T23:56:00;7.10;99.90
